Time;durP1;ratioP1;P1;durP2;ratioP2;P2;SDS_P1;SDS_P2;PMS_P1;PMS_P2;Temp;Humidity;BMP_temperature;BMP_pressure;BME280_temperature;BME280_humidity;BME280_pressure;Samples;Min_cycle;Max_cycle;Signal;HPM_P1;HPM_P2
2021/11/21 06:09:38;;;;;;;4.05;1.10;;;;;;;17.17;66.39;101353.47;3022220;27;20489;-82
2021/11/21 06:12:11;;;;;;;2.63;1.23;;;;;;;17.16;66.30;101348.25;4823116;29;20049;-80
2021/11/21 06:14:43;;;;;;;2.75;1.27;;;;;;;17.17;66.90;101350.00;4818832;29;20027;-81
2021/11/21 06:26:46;;;;;;;2.80;1.08;;;;;;;17.17;66.36;101355.22;4796146;29;20055;-82
2021/11/21 06:33:07;;;;;;;2.20;1.15;;;;;;;17.15;66.21;101360.41;4793924;30;20051;-82
2021/11/21 06:39:36;;;;;;;6.03;1.17;;;;;;;17.15;66.25;101372.53;4794607;30;20046;-83
2021/11/21 06:56:14;;;;;;;2.25;0.85;;;;;;;17.13;66.94;101369.06;4840908;29;20083;-82
2021/11/21 06:59:03;;;;;;;2.30;1.10;;;;;;;17.12;65.77;101368.22;4839905;29;20050;-83
2021/11/21 07:01:57;;;;;;;2.90;1.20;;;;;;;17.13;65.83;101380.34;4846889;29;20038;-83
2021/11/21 07:11:23;;;;;;;2.42;0.90;;;;;;;17.11;65.70;101378.59;4812299;29;20034;-84
2021/11/21 07:27:30;;;;;;;2.97;1.00;;;;;;;17.12;65.80;101375.16;5250328;24;20074;-81
2021/11/21 07:30:00;;;;;;;2.72;1.05;;;;;;;17.12;65.62;101375.16;4839937;29;20126;-82
2021/11/21 07:32:54;;;;;;;7.20;1.25;;;;;;;17.07;64.05;101380.31;4832601;29;20030;-82
2021/11/21 07:47:53;;;;;;;7.40;1.40;;;;;;;17.27;61.57;101377.75;5306969;23;20046;-81
2021/11/21 07:50:19;;;;;;;6.18;1.55;;;;;;;17.30;62.36;101382.09;4832786;29;20032;-77
2021/11/21 07:52:46;;;;;;;4.82;1.33;;;;;;;17.32;61.96;101388.16;4828759;29;20031;-81
2021/11/21 08:31:44;;;;;;;;;;;;;;;;;;;;;
2021/11/21 08:34:12;;;;;;;4.25;1.10;;;;;;;17.63;60.94;101412.44;4845778;29;20073;-84
2021/11/21 08:37:21;;;;;;;3.42;1.27;;;;;;;17.69;60.61;101410.69;4828757;29;20022;-83
2021/11/21 08:39:49;;;;;;;3.63;1.20;;;;;;;17.70;60.79;101411.56;4844545;29;20085;-82
2021/11/21 08:42:15;;;;;;;4.65;1.13;;;;;;;17.71;60.75;101408.09;4814365;29;20042;-82
2021/11/21 08:44:44;;;;;;;5.57;1.08;;;;;;;17.73;60.51;101411.56;4845537;29;20033;-82
2021/11/21 08:47:12;;;;;;;3.00;1.15;;;;;;;17.75;60.65;101417.66;4829285;29;20026;-82
2021/11/21 08:49:42;;;;;;;3.08;1.20;;;;;;;17.75;60.74;101415.03;4829524;29;20098;-83
2021/11/21 08:52:14;;;;;;;2.83;1.15;;;;;;;17.76;60.57;101419.38;4829752;29;20048;-83
2021/11/21 08:54:39;;;;;;;2.67;0.95;;;;;;;17.76;60.69;101418.50;4830049;29;20088;-77
2021/11/21 09:00:32;;;;;;;3.75;0.90;;;;;;;17.77;60.49;101415.03;4844737;29;20103;-84
2021/11/21 09:25:53;;;;;;;11.27;1.42;;;;;;;18.09;62.71;101433.22;5038917;24;20072;-86
2021/11/21 09:28:28;;;;;;;6.85;1.15;;;;;;;18.05;64.08;101437.59;4812244;29;20082;-82
2021/11/21 09:31:20;;;;;;;8.27;1.20;;;;;;;18.04;64.12;101440.19;4807737;29;20051;-86
2021/11/21 09:33:57;;;;;;;8.57;1.40;;;;;;;17.91;63.12;101439.34;4809977;29;20042;-86
2021/11/21 09:39:56;;;;;;;8.02;1.35;;;;;;;17.75;62.76;101454.09;4812298;30;20050;-86
2021/11/21 09:42:30;;;;;;;;;;;;;;;17.72;62.76;101445.41;4810990;29;20035;-86
2021/11/21 11:04:08;;;;;;;2.25;0.75;;;;;;;17.46;63.53;101439.34;3438652;24;20055;-83
2021/11/21 11:07:31;;;;;;;3.70;1.05;;;;;;;17.43;63.33;101454.06;4810837;29;20069;-87
2021/11/21 11:10:08;;;;;;;2.95;1.10;;;;;;;17.39;63.40;101454.94;4755162;30;20048;-87
2021/11/21 11:13:15;;;;;;;2.85;0.98;;;;;;;17.36;63.70;101445.41;4821591;29;20566;-88
2021/11/21 11:16:12;;;;;;;2.30;0.95;;;;;;;17.35;63.64;101450.59;4826496;29;20031;-87
2021/11/21 11:18:48;;;;;;;4.32;1.05;;;;;;;17.34;63.64;101449.72;4812526;29;20050;-87
2021/11/21 11:24:48;;;;;;;4.20;1.17;;;;;;;17.31;63.71;101452.34;4828769;29;20099;-88
2021/11/21 11:28:16;;;;;;;4.07;0.90;;;;;;;17.28;64.42;101449.72;4808163;30;20039;-86
2021/11/21 11:31:23;;;;;;;3.97;1.08;;;;;;;17.34;64.82;101452.34;4809120;30;20065;-87
2021/11/21 11:34:29;;;;;;;3.35;0.80;;;;;;;17.34;64.71;101452.34;4793600;30;20108;-86
2021/11/21 11:37:01;;;;;;;1.95;0.80;;;;;;;17.35;64.73;101448.00;4823985;29;20058;-83
2021/11/21 11:39:47;;;;;;;4.13;1.00;;;;;;;17.36;64.78;101450.59;4810252;29;20023;-85
2021/11/21 11:42:31;;;;;;;2.25;1.00;;;;;;;17.39;65.03;101461.00;4811844;29;20043;-86
2021/11/21 11:45:35;;;;;;;;;;;;;;;;;;;;;
2021/11/21 11:53:43;;;;;;;4.03;1.23;;;;;;;17.46;64.89;101451.47;5063669;24;20062;-85
2021/11/21 11:56:59;;;;;;;2.60;1.00;;;;;;;17.47;64.67;101461.03;4827824;29;20072;-81
2021/11/21 12:02:58;;;;;;;2.80;0.90;;;;;;;17.48;64.92;101453.22;4827872;29;20034;-81
2021/11/21 12:12:25;;;;;;;3.13;1.05;;;;;;;17.55;65.21;101467.09;4827093;29;20066;-82
2021/11/21 12:15:28;;;;;;;3.53;1.20;;;;;;;17.60;65.04;101467.09;4824815;29;20039;-81
2021/11/21 12:18:48;;;;;;;2.33;0.80;;;;;;;17.61;65.22;101464.47;4811830;29;20031;-83
2021/11/21 12:21:37;;;;;;;3.75;1.20;;;;;;;17.61;65.20;101461.03;4807974;29;20031;-82
2021/11/21 12:27:37;;;;;;;2.67;1.00;;;;;;;17.60;65.28;101465.38;4824371;29;20046;-81
2021/11/21 12:30:40;;;;;;;3.30;1.17;;;;;;;17.60;66.16;101461.91;4812401;29;20041;-82
2021/11/21 13:03:59;;;;;;;;;;;;;;;17.62;65.82;101470.59;4773911;30;20048;-87
2021/11/21 13:10:21;;;;;;;3.78;1.10;;;;;;;17.63;65.98;101473.16;4770515;30;20040;-86
2021/11/21 13:13:24;;;;;;;3.55;1.10;;;;;;;17.63;65.87;101467.09;4771892;30;20051;-85
2021/11/21 13:16:56;;;;;;;2.75;1.00;;;;;;;17.78;65.68;101472.28;4736151;30;20037;-87
2021/11/21 13:59:27;;;;;;;4.07;1.10;;;;;;;17.75;66.28;101506.16;4923254;23;20060;-82
2021/11/21 14:02:02;;;;;;;2.80;0.85;;;;;;;17.72;66.23;101502.66;4845470;29;20034;-83
2021/11/21 14:04:36;;;;;;;5.18;0.93;;;;;;;17.72;66.01;101500.06;4848959;29;20061;-83
2021/11/21 14:10:40;;;;;;;2.70;0.88;;;;;;;17.69;66.24;101509.59;4848932;29;20082;-84
2021/11/21 14:13:28;;;;;;;4.03;0.90;;;;;;;17.68;66.04;101513.09;4825073;29;20539;-81
2021/11/21 14:16:06;;;;;;;2.58;0.93;;;;;;;17.67;66.26;101510.47;4817395;29;20041;-80
2021/11/21 14:18:45;;;;;;;2.17;0.77;;;;;;;17.65;66.28;101510.47;4801611;29;20498;-81
2021/11/21 14:21:15;;;;;;;2.95;0.88;;;;;;;17.65;66.19;101526.09;4786042;29;20126;-81
2021/11/21 14:23:40;;;;;;;2.60;1.05;;;;;;;17.65;66.30;101526.09;4799871;29;20038;-80
2021/11/21 14:26:08;;;;;;;2.63;0.75;;;;;;;17.65;66.12;101527.81;4799689;29;20056;-80
2021/11/21 14:28:39;;;;;;;2.53;0.98;;;;;;;17.64;66.27;101532.19;4801502;29;20051;-81
2021/11/21 14:31:10;;;;;;;2.58;0.90;;;;;;;17.62;66.30;101528.69;4815726;29;20061;-80
2021/11/21 14:33:44;;;;;;;3.42;0.95;;;;;;;17.63;65.96;101529.56;4814796;29;20084;-81
2021/11/21 14:36:26;;;;;;;2.67;0.90;;;;;;;17.63;66.00;101542.56;4818632;29;20038;-81
2021/11/21 14:39:01;;;;;;;3.25;0.90;;;;;;;17.61;66.16;101542.56;4803328;29;20049;-82
2021/11/21 14:41:36;;;;;;;2.25;0.80;;;;;;;17.63;66.07;101546.03;4820196;29;20042;-82
2021/11/21 14:44:06;;;;;;;3.08;0.80;;;;;;;17.64;65.82;101546.94;4830511;29;20038;-81
2021/11/21 14:46:36;;;;;;;1.77;0.93;;;;;;;17.61;66.16;101544.31;4825681;29;20045;-81
2021/11/21 14:49:04;;;;;;;1.75;0.80;;;;;;;17.62;65.86;101546.06;4829325;29;20022;-81
2021/11/21 14:51:36;;;;;;;2.45;0.93;;;;;;;17.61;66.09;101549.50;4845778;29;20053;-81
2021/11/21 14:54:16;;;;;;;2.15;1.08;;;;;;;17.59;66.30;101551.25;4814476;29;20034;-80
2021/11/21 14:56:58;;;;;;;3.15;1.08;;;;;;;17.58;66.09;101552.13;4832165;29;20072;-81
2021/11/21 14:59:26;;;;;;;3.28;0.80;;;;;;;17.58;65.99;101555.59;4841399;29;20054;-82
2021/11/21 15:02:18;;;;;;;3.17;0.93;;;;;;;17.57;65.79;101551.25;4841622;29;20034;-83
2021/11/21 15:04:48;;;;;;;2.10;0.73;;;;;;;17.58;66.07;101560.78;4829021;29;20036;-81
2021/11/21 15:07:18;;;;;;;2.90;1.02;;;;;;;17.56;65.93;101569.47;4826203;29;20026;-83
2021/11/21 15:10:24;;;;;;;3.58;1.13;;;;;;;17.56;66.03;101565.13;4845315;29;20042;-82
2021/11/21 15:13:11;;;;;;;2.85;1.02;;;;;;;17.56;65.91;101574.66;4845505;29;20054;-82
2021/11/21 15:15:39;;;;;;;4.82;0.90;;;;;;;17.55;65.86;101575.50;4826435;29;20041;-82
2021/11/21 15:18:08;;;;;;;4.38;1.05;;;;;;;17.57;65.91;101573.78;4846413;29;20031;-82
2021/11/21 15:21:10;;;;;;;2.47;0.90;;;;;;;17.61;66.00;101584.19;4830604;29;20052;-82
2021/11/21 15:23:47;;;;;;;3.67;1.30;;;;;;;17.61;66.00;101589.41;4846898;29;20045;-82
2021/11/21 15:26:20;;;;;;;2.72;0.82;;;;;;;17.60;66.09;101587.69;4845828;29;20038;-82
2021/11/21 15:29:05;;;;;;;;;;;;;;;17.63;65.73;101587.69;4828685;29;20042;-85
2021/11/21 15:35:02;;;;;;;3.15;0.90;;;;;;;17.60;65.94;101584.22;4846282;29;20064;-81
2021/11/21 15:37:56;;;;;;;3.00;1.02;;;;;;;17.58;65.64;101586.81;4841899;29;20022;-87
2021/11/21 15:43:29;;;;;;;2.55;0.85;;;;;;;17.58;65.79;101593.75;5177501;23;20129;-82
2021/11/21 15:46:16;;;;;;;2.72;0.95;;;;;;;17.58;65.95;101596.38;5042091;24;20039;-82
2021/11/21 15:49:11;;;;;;;2.40;1.13;;;;;;;17.56;65.96;101587.69;4842478;29;20022;-82
2021/11/21 16:09:35;;;;;;;4.07;1.40;;;;;;;17.46;64.94;101618.00;5886262;23;20861;31
2021/11/21 17:07:27;;;;;;;3.03;1.00;;;;;;;17.63;65.10;101670.09;5175162;24;20070;-85
2021/11/21 17:33:57;;;;;;;4.30;1.10;;;;;;;17.64;65.07;101705.69;5584358;24;20105;-85
2021/11/21 17:43:03;;;;;;;4.07;1.42;;;;;;;17.59;65.14;101720.41;2920068;24;20085;-81
2021/11/21 17:45:48;;;;;;;2.33;1.15;;;;;;;17.61;64.99;101726.50;4827826;29;20035;-82
2021/11/21 18:39:43;;;;;;;9.48;3.67;;;;;;;17.59;65.20;101801.94;4831093;29;20064;-85
2021/11/21 18:42:37;;;;;;;7.88;3.72;;;;;;;17.57;65.21;101811.50;4803395;29;20030;-82
2021/11/21 18:45:40;;;;;;;9.52;3.67;;;;;;;17.53;65.27;101807.16;4827219;29;20023;-82
2021/11/21 18:48:26;;;;;;;6.15;3.08;;;;;;;17.54;65.10;101806.28;4812675;29;20129;-84
2021/11/21 18:50:53;;;;;;;8.15;3.47;;;;;;;17.56;65.19;101811.50;4812998;29;20480;-80
2021/11/21 18:53:27;;;;;;;9.45;3.10;;;;;;;17.54;65.20;101813.22;4813236;29;20061;-81
2021/11/21 19:19:56;;;;;;;8.80;3.08;;;;;;;17.53;64.81;101832.28;4813255;29;20047;-83
2021/11/21 19:36:23;;;;;;;6.18;2.60;;;;;;;17.51;64.37;101866.13;4792839;29;20050;-83
2021/11/21 19:42:25;;;;;;;7.80;2.83;;;;;;;17.50;64.24;101872.16;4810854;29;20066;-83
2021/11/21 19:44:58;;;;;;;7.20;2.72;;;;;;;17.51;64.57;101870.44;4809842;29;20039;-83
2021/11/21 19:47:29;;;;;;;6.97;2.92;;;;;;;17.50;64.63;101877.38;4809291;29;20088;-82
2021/11/21 19:50:20;;;;;;;4.22;2.05;;;;;;;17.51;64.26;101884.34;4809857;29;20043;-83
2021/11/21 19:52:57;;;;;;;;;;;;;;;17.51;64.12;101888.66;4810863;29;20039;-83
2021/11/21 19:58:34;;;;;;;6.60;2.65;;;;;;;17.48;64.28;101894.72;4798998;29;20059;-82
2021/11/21 20:01:43;;;;;;;6.30;2.25;;;;;;;17.49;64.53;101899.06;4810291;29;20038;-82
2021/11/21 20:25:35;;;;;;;5.90;2.30;;;;;;;17.48;63.91;101946.75;5424781;24;20106;-82
2021/11/21 20:28:04;;;;;;;4.88;2.30;;;;;;;17.46;64.14;101946.75;4815424;29;20057;-83
2021/11/21 20:37:25;;;;;;;5.72;2.30;;;;;;;17.45;63.91;101952.81;4826627;29;20078;-83
2021/11/21 20:40:10;;;;;;;5.32;2.13;;;;;;;17.47;63.75;101958.91;4808793;29;20042;-83
2021/11/21 20:42:37;;;;;;;7.13;2.60;;;;;;;17.46;63.75;101956.28;4770269;30;20094;-81
2021/11/21 20:45:10;;;;;;;5.65;2.00;;;;;;;17.48;63.65;101959.75;4766712;30;20036;-82
2021/11/21 20:47:55;;;;;;;4.88;2.03;;;;;;;17.47;63.82;101966.72;4765037;30;20052;-82
2021/11/21 20:50:21;;;;;;;5.40;2.10;;;;;;;17.48;63.69;101967.56;4761773;30;20119;-80
2021/11/21 20:52:51;;;;;;;4.15;2.00;;;;;;;17.46;63.94;101974.50;4767998;30;20032;-82
2021/11/21 20:55:17;;;;;;;3.97;1.90;;;;;;;17.45;63.63;101986.63;4770587;30;20044;-82
2021/11/21 21:05:29;;;;;;;4.38;1.98;;;;;;;17.47;63.31;102000.53;3128282;24;20323;-83
2021/11/21 22:26:09;;;;;;;3.80;1.80;;;;;;;17.41;62.75;102112.38;4941207;24;20043;-84
2021/11/21 22:29:20;;;;;;;4.13;1.80;;;;;;;17.34;62.49;102120.97;4811983;29;20035;-84
